Historyczne dane pomiarowe

Dodano dane terminowe – wersja testowa.

Dane z okresu 1951-2019

Wersja bazy: 1.34 [2019-03-16, lista zmian], aktualizacja planowana na 2019-04-15

Dane meteo z obszaru Polski uzyskane na podstawie danych udostępnionych przez Instytut Meteorologii i Gospodarki Wodnej – Państwowy Instytut Badawczy.

 

Wybierz Datę:    

       

TemperaturaWilgotnośćWiatrCiśnienieOpadyŚniegCzas trwania zjawisk
 Stacja t tx tn tng RH VA  wxwx mslp ppp RRR   cm mm wxwxwxwxwxwxwx
1961-08-14 15.2 20.0 7.1- 80.8- 4.0 1.7---- 0.0------------
1961-08-13 14.1 18.1 11.9- 80.8- 2.7 1.3---- 0.0------------
1961-08-12 18.1 22.4 13.6- 86.0- 8.0 1.3---- 0.0------------
1961-08-11 16.7 20.9 16.3- 96.3- 8.0 0.7---- 14.0------------
1961-08-10 20.2 25.2 15.7- 85.3- 7.7 1.7---- 1.5------------
1961-08-09 19.9 26.2 15.1- 79.0- 3.3 1.7---- 0.4------------
1961-08-08 17.9 22.2 10.4- 72.8- 3.0 1.3---- 0.0------------
1961-08-07 15.6 22.0 14.4- 95.0- 7.7 1.0---- 7.6------------
1961-08-06 23.4 29.9 16.2- 77.3- 3.0 1.3---- 4.1------------
1961-08-05 18.4 23.9 14.4- 85.8- 5.3 2.7---- 0.0------------
1961-08-04 15.6 19.1 9.3- 78.0- 7.0 2.3---- 0.3------------
1961-08-03 13.8 18.5 11.7- 94.5- 5.3 1.0---- 3.2------------
1961-08-02 17.1 24.2 10.1- 84.8- 3.0 1.0---- 16.3------------
1961-08-01 13.4 15.4 11.7- 94.5- 5.3 4.7---- 0.6------------
1961-07-31 13.8 15.1 13.1- 98.5- 8.0 2.3---- 42.2------------
1961-07-30 15.6 18.6 11.4- 84.3- 7.3 0.0---- 3.9------------
1961-07-29 14.6 19.6 12.5- 81.3- 7.0 2.7---- 0.0------------
1961-07-28 15.6 19.2 14.5- 92.0- 8.0 2.0---- 6.4------------
1961-07-27 19.5 24.5 15.5- 71.0- 7.0 2.3---- 0.2------------
1961-07-26 17.7 22.2 12.4- 76.5- 7.7 2.7---- 0.2------------
1961-07-25 14.2 17.1 10.9- 86.3- 5.3 1.3---- 0.5------------
1961-07-24 15.2 20.6 11.0- 78.5- 4.0 3.7---- 0.0------------
1961-07-23 14.8 17.6 13.1- 87.5- 7.3 3.0---- 0.0------------
1961-07-22 14.0 20.6 11.0- 92.0- 8.0 1.7---- 22.1------------
1961-07-21 15.0 18.7 12.6- 94.0- 8.0 2.0---- 3.4------------
1961-07-20 14.6 21.9 10.1- 90.5- 5.3 0.3---- 5.0------------
1961-07-19 15.2 20.1 11.7- 86.3- 4.3 0.7---- 0.5------------
1961-07-18 14.6 20.1 11.4- 88.5- 7.3 1.3---- 4.4------------
1961-07-17 15.0 22.2 12.0- 84.8- 4.7 1.7---- 22.5------------
1961-07-16 14.5 18.5 12.5- 92.5- 5.3 0.3---- 8.9------------
1961-07-15 16.8 23.5 12.0- 78.8- 4.3 1.3---- 3.1------------
1961-07-14 13.8 19.4 13.0- 79.0- 5.3 3.3---- 0.0------------
1961-07-13 21.6 30.0 16.1- 77.3- 6.3 2.7---- 1.6------------
1961-07-12 19.6 26.4 14.3- 83.5- 1.7 0.7---- 0.0------------
1961-07-11 16.6 22.2 9.8- 70.5- 5.0 3.3---- 14.4------------
1961-07-10 13.9 19.1 10.7- 81.3- 7.0 2.0---- 0.9------------
1961-07-09 15.3 20.5 10.4- 80.0- 6.3 1.7---- 2.9------------
1961-07-08 16.7 22.2 10.0- 65.0- 6.3 2.0---- 0.0------------
1961-07-07 12.8 17.4 9.8- 76.0- 2.3 2.0---- 0.0------------
1961-07-06 12.2 15.6 8.2- 83.5- 7.3 4.0---- 3.0------------
1961-07-05 13.6 18.5 12.3- 68.0- 5.7 6.7---- 0.0------------
1961-07-04 17.7 26.2 14.3- 76.3- 6.3 2.0---- 0.0------------
1961-07-03 27.0 33.7 13.2- 46.5- 1.7 1.7---- 2.9------------
1961-07-02 22.7 30.5 11.0- 56.3- 0.0 1.0---- 0.0------------
1961-07-01 20.0 28.0 9.8- 62.8- 0.7 0.7---- 0.0------------
1961-06-30 20.7 27.0 10.5- 57.8- 0.0 1.7---- 0.0------------
1961-06-29 15.8 21.0 11.9- 70.3- 5.0 2.7---- 0.0------------
1961-06-28 16.4 21.5 15.2- 58.3- 6.3 5.3---- 0.0------------
1961-06-27 24.3 33.2 17.1- 73.5- 5.0 3.3---- 0.2------------
1961-06-26 22.8 29.4 14.9- 59.3- 0.0 2.3---- 0.0------------
1961-06-25 22.1 29.0 15.4- 64.0- 0.3 3.0---- 0.0------------
1961-06-24 18.8 23.8 13.0- 64.8- 1.3 4.3---- 0.0------------
1961-06-23 18.6 24.5 7.0- 67.3- 1.7 3.7---- 0.0------------
1961-06-22 17.7 23.5 7.2- 67.5- 0.7 1.7---- 0.0------------
1961-06-21 15.6 24.0 7.7- 73.8- 2.7 1.7---- 0.0------------
1961-06-20 15.3 20.0 9.7- 61.0- 1.3 2.0---- 0.0------------
1961-06-19 17.1 23.0 15.0- 61.3- 0.3 3.7---- 0.0------------
1961-06-18 21.6 28.2 15.2- 66.0- 4.3 3.0---- 0.5------------
1961-06-17 17.7 22.9 9.3- 72.0- 4.0 1.7---- 0.0------------
1961-06-16 13.0 17.7 11.3- 84.8- 5.3 2.7---- 0.3------------
278.8 ms

 

Źródłem pochodzenia danych jest Instytut Meteorologii i Gospodarki Wodnej – Państwowy Instytut Badawczy. Dane Instytutu Meteorologii i Gospodarki Wodnej – Państwowego Instytutu Badawczego zostały przetworzone.

Dane źródłowe można odnaleźć na stronie https://dane.imgw.pl